createdAt,value
2023-03-30T00:00:47.073Z,100455.94
2023-03-30T00:03:50.260Z,100448.31
2023-03-30T00:06:52.952Z,100436.16
2023-03-30T00:09:56.956Z,100441.75
2023-03-30T00:12:59.663Z,100444.75
2023-03-30T00:16:02.883Z,100434.94
2023-03-30T00:19:05.967Z,100432.63
2023-03-30T00:22:11.460Z,100441.09
2023-03-30T00:25:17.277Z,100431.47
2023-03-30T00:28:19.896Z,100421.50
2023-03-30T00:31:22.508Z,100413.19
2023-03-30T00:34:25.443Z,100410.06
2023-03-30T00:37:28.444Z,100403.88
2023-03-30T00:40:34.656Z,100406.63
2023-03-30T00:43:56.367Z,100399.59
2023-03-30T00:46:59.870Z,100393.28
2023-03-30T00:50:03.364Z,100385.03
2023-03-30T00:53:11.453Z,100381.94
2023-03-30T00:56:18.721Z,100379.94
2023-03-30T00:59:21.611Z,100371.31
2023-03-30T01:02:24.866Z,100357.84
2023-03-30T01:05:28.918Z,100353.09
2023-03-30T01:08:33.317Z,100336.75
2023-03-30T01:11:37.307Z,100326.44
2023-03-30T01:14:40.078Z,100318.69
2023-03-30T01:17:59.648Z,100316.81
2023-03-30T01:21:48.377Z,100303.72
2023-03-30T01:25:18.286Z,100298.38
2023-03-30T01:28:31.515Z,100300.22
2023-03-30T01:31:52.875Z,100298.19
2023-03-30T01:35:43.283Z,100284.69
2023-03-30T01:39:17.627Z,100274.69
2023-03-30T01:42:24.148Z,100285.88
2023-03-30T01:45:36.575Z,100284.78
2023-03-30T01:48:45.362Z,100292.78
2023-03-30T01:51:57.043Z,100276.72
2023-03-30T01:55:06.297Z,100283.56
2023-03-30T01:58:15.217Z,100276.09
2023-03-30T02:01:20.538Z,100260.47
2023-03-30T02:04:25.531Z,100260.59
2023-03-30T02:07:32.385Z,100246.91
2023-03-30T02:10:38.555Z,100229.41
2023-03-30T02:13:43.013Z,100232.16
2023-03-30T02:16:48.172Z,100231.31
2023-03-30T02:19:51.886Z,100222.25
2023-03-30T02:22:54.805Z,100219.44
2023-03-30T02:25:59.392Z,100218.41
2023-03-30T02:29:02.179Z,100206.81
2023-03-30T02:32:05.135Z,100201.63
2023-03-30T02:35:29.084Z,100205.84
2023-03-30T02:38:57.404Z,100201.94
2023-03-30T02:42:31.187Z,100186.19
2023-03-30T02:45:46.895Z,100194.78
2023-03-30T02:49:02.928Z,100193.69
2023-03-30T02:52:16.461Z,100178.63
2023-03-30T02:55:22.563Z,100167.19
2023-03-30T02:58:34.655Z,100159.22
2023-03-30T03:01:43.683Z,100143.00
2023-03-30T03:04:47.918Z,100135.44
2023-03-30T03:07:50.791Z,100138.84
2023-03-30T03:10:53.377Z,100125.06
2023-03-30T03:13:57.677Z,100122.25
2023-03-30T03:17:00.600Z,100118.91
2023-03-30T03:20:04.181Z,100127.56
2023-03-30T03:23:07.439Z,100113.38
2023-03-30T03:26:11.545Z,100098.41
2023-03-30T03:29:15.728Z,100100.34
2023-03-30T03:32:18.352Z,100091.53
2023-03-30T03:35:21.682Z,100091.97
2023-03-30T03:38:24.591Z,100065.88
2023-03-30T03:41:27.320Z,100073.41
2023-03-30T03:44:31.275Z,100080.53
2023-03-30T03:47:34.465Z,100074.34
2023-03-30T03:50:37.116Z,100068.38
2023-03-30T03:53:39.776Z,100065.19
2023-03-30T03:56:42.404Z,100051.22
2023-03-30T03:59:46.402Z,100053.16
2023-03-30T04:02:48.993Z,100045.34
2023-03-30T04:05:51.571Z,100043.41
2023-03-30T04:08:54.141Z,100040.69
2023-03-30T04:11:56.814Z,100036.91
2023-03-30T04:15:01.032Z,100045.13
2023-03-30T04:18:05.445Z,100033.97
2023-03-30T04:21:13.017Z,100035.38
2023-03-30T04:24:15.786Z,100029.75
2023-03-30T04:27:18.374Z,100029.59
2023-03-30T04:30:23.366Z,100024.25
2023-03-30T04:33:26.008Z,100019.16
2023-03-30T04:36:28.974Z,100019.63
2023-03-30T04:39:31.550Z,100008.53
2023-03-30T04:42:37.546Z,100004.91
2023-03-30T04:45:42.152Z,99989.19
2023-03-30T04:48:44.767Z,99988.19
2023-03-30T04:51:47.339Z,99982.97
2023-03-30T04:54:50.299Z,99977.13
2023-03-30T04:57:52.886Z,99982.34
2023-03-30T05:00:58.105Z,99975.03
2023-03-30T05:04:00.992Z,99977.19
2023-03-30T05:07:04.234Z,99967.63
2023-03-30T05:10:07.838Z,99969.25
2023-03-30T05:13:10.432Z,99958.88
2023-03-30T05:16:14.421Z,99961.22
2023-03-30T05:19:17.101Z,99964.56
2023-03-30T05:22:19.799Z,99964.41
2023-03-30T05:25:22.415Z,99960.50
2023-03-30T05:28:25.042Z,99953.00
2023-03-30T05:31:29.044Z,99959.91
2023-03-30T05:34:31.683Z,99955.38
2023-03-30T05:37:34.356Z,99943.69
2023-03-30T05:40:37.952Z,99932.00
2023-03-30T05:43:40.895Z,99924.38
2023-03-30T05:46:44.979Z,99936.38
2023-03-30T05:49:47.627Z,99944.75
2023-03-30T05:52:50.736Z,99951.53
2023-03-30T05:55:53.326Z,99964.28
2023-03-30T05:58:55.944Z,99978.91
2023-03-30T06:02:00.620Z,99979.09
2023-03-30T06:05:04.087Z,99982.56
2023-03-30T06:08:07.958Z,99977.34
2023-03-30T06:11:11.293Z,99982.13
2023-03-30T06:14:14.066Z,99974.03
2023-03-30T06:17:18.680Z,99960.59
2023-03-30T06:20:24.516Z,99959.31
2023-03-30T06:23:27.115Z,99950.06
2023-03-30T06:26:29.747Z,99945.97
2023-03-30T06:29:32.728Z,99936.28
2023-03-30T06:32:37.678Z,99933.81
2023-03-30T06:35:40.350Z,99948.22
2023-03-30T06:38:43.557Z,99941.00
2023-03-30T06:41:46.293Z,99939.72
2023-03-30T06:44:49.917Z,99931.59
2023-03-30T06:47:54.125Z,99941.34
2023-03-30T06:50:57.132Z,99934.19
2023-03-30T06:53:59.813Z,99935.16
2023-03-30T06:57:02.781Z,99936.00
2023-03-30T07:00:10.208Z,99930.56
2023-03-30T07:03:14.179Z,99926.53
2023-03-30T07:06:18.661Z,99930.34
2023-03-30T07:09:22.737Z,99920.16
2023-03-30T07:12:25.452Z,99923.75
2023-03-30T07:15:28.047Z,99926.09
2023-03-30T07:18:32.338Z,99925.75
2023-03-30T07:21:35.012Z,99929.38
2023-03-30T07:24:37.703Z,99918.81
2023-03-30T07:27:40.970Z,99919.66
2023-03-30T07:30:43.881Z,99921.38
2023-03-30T07:33:47.935Z,99917.97
2023-03-30T07:36:50.557Z,99922.22
2023-03-30T07:39:53.174Z,99921.56
2023-03-30T07:42:55.795Z,99914.25
2023-03-30T07:45:58.490Z,99921.97
2023-03-30T07:49:02.423Z,99926.13
2023-03-30T07:52:05.084Z,99927.94
2023-03-30T07:55:08.989Z,99924.59
2023-03-30T07:58:11.575Z,99934.56
2023-03-30T08:01:14.223Z,99936.00
2023-03-30T08:04:18.648Z,99942.84
2023-03-30T08:07:21.332Z,99931.28
2023-03-30T08:10:24.009Z,99936.97
2023-03-30T08:13:27.176Z,99933.75
2023-03-30T08:16:30.014Z,99935.25
2023-03-30T08:19:34.057Z,99928.22
2023-03-30T08:22:36.611Z,99928.06
2023-03-30T08:25:39.453Z,99938.84
2023-03-30T08:28:42.042Z,99930.34
2023-03-30T08:31:45.512Z,99934.31
2023-03-30T08:34:49.639Z,99935.84
2023-03-30T08:37:52.526Z,99926.97
2023-03-30T08:40:55.500Z,99924.41
2023-03-30T08:43:59.718Z,99928.78
2023-03-30T08:47:04.754Z,99928.78
2023-03-30T08:50:14.817Z,99922.69
2023-03-30T08:53:17.497Z,99916.66
2023-03-30T08:56:24.842Z,99913.06
2023-03-30T08:59:38.576Z,99908.25
2023-03-30T09:02:44.624Z,99916.16
2023-03-30T09:05:56.088Z,99907.97
2023-03-30T09:08:59.125Z,99908.28
2023-03-30T09:12:06.626Z,99892.63
2023-03-30T09:15:15.036Z,99895.63
2023-03-30T09:18:22.374Z,99888.47
2023-03-30T09:21:29.886Z,99881.75
2023-03-30T09:24:33.351Z,99894.31
2023-03-30T09:27:43.255Z,99895.41
2023-03-30T09:30:49.692Z,99893.06
2023-03-30T09:34:00.962Z,99891.75
2023-03-30T09:37:06.950Z,99882.19
2023-03-30T09:40:23.987Z,99888.81
2023-03-30T09:43:33.918Z,99903.06
2023-03-30T09:46:38.095Z,99897.13
2023-03-30T09:49:40.940Z,99897.13
2023-03-30T09:52:57.503Z,99900.94
2023-03-30T09:56:02.094Z,99889.84
2023-03-30T09:59:21.807Z,99889.13
2023-03-30T10:02:27.589Z,99886.88
2023-03-30T10:05:32.396Z,99893.59
2023-03-30T10:08:42.777Z,99893.72
2023-03-30T10:11:47.043Z,99887.50
2023-03-30T10:14:55.119Z,99909.78
2023-03-30T10:18:03.548Z,99900.84
2023-03-30T10:21:07.972Z,99902.38
2023-03-30T10:24:23.088Z,99901.47
2023-03-30T10:27:29.060Z,99886.81
2023-03-30T10:30:32.888Z,99888.16
2023-03-30T10:33:41.639Z,99895.00
2023-03-30T10:36:49.679Z,99885.91
2023-03-30T10:39:56.136Z,99882.03
2023-03-30T10:42:59.316Z,99874.28
2023-03-30T10:46:19.241Z,99876.38
2023-03-30T10:49:38.396Z,99878.47
2023-03-30T10:52:59.155Z,99860.28
2023-03-30T10:56:13.440Z,99858.41
2023-03-30T10:59:27.854Z,99845.03
2023-03-30T11:02:46.057Z,99855.38
2023-03-30T11:05:52.642Z,99850.41
2023-03-30T11:08:57.734Z,99843.69
2023-03-30T11:12:06.092Z,99858.31
2023-03-30T11:15:14.203Z,99854.84
2023-03-30T11:18:21.894Z,99851.22
2023-03-30T11:21:31.855Z,99849.06
2023-03-30T11:24:36.372Z,99863.75
2023-03-30T11:27:55.639Z,99845.72
2023-03-30T11:31:08.592Z,99851.38
2023-03-30T11:34:21.459Z,99841.63
2023-03-30T11:37:29.751Z,99844.13
2023-03-30T11:40:41.668Z,99851.47
2023-03-30T11:43:45.844Z,99853.66
2023-03-30T11:47:00.319Z,99843.69
2023-03-30T11:50:14.789Z,99852.31
2023-03-30T11:53:29.201Z,99842.56
2023-03-30T11:56:40.894Z,99851.84
2023-03-30T11:59:54.240Z,99853.47
2023-03-30T12:03:09.124Z,99848.66
2023-03-30T12:06:26.992Z,99844.63
2023-03-30T12:09:35.278Z,99851.31
2023-03-30T12:12:40.102Z,99850.94
2023-03-30T12:15:51.991Z,99852.44
2023-03-30T12:19:06.508Z,99849.59
2023-03-30T12:22:16.890Z,99853.75
2023-03-30T12:25:29.770Z,99856.97
2023-03-30T12:32:06.985Z,99883.44
2023-03-30T12:35:43.277Z,99892.44
2023-03-30T12:38:48.246Z,99905.81
2023-03-30T12:41:51.907Z,99909.16
2023-03-30T12:45:12.399Z,99916.44
2023-03-30T12:48:29.939Z,99920.16
2023-03-30T12:51:52.209Z,99922.72
2023-03-30T12:55:06.116Z,99924.53
2023-03-30T12:58:21.004Z,99918.16
2023-03-30T13:01:38.240Z,99920.75
2023-03-30T13:04:46.468Z,99919.47
2023-03-30T13:07:51.109Z,99919.63
2023-03-30T13:11:08.289Z,99932.81
2023-03-30T13:14:26.531Z,99918.44
2023-03-30T13:17:29.527Z,99918.25
2023-03-30T13:20:35.425Z,99908.63
2023-03-30T13:23:39.899Z,99914.00
2023-03-30T13:26:44.900Z,99921.31
2023-03-30T13:29:52.787Z,99916.94
2023-03-30T13:33:11.637Z,99922.53
2023-03-30T13:36:22.279Z,99921.31
2023-03-30T13:39:32.313Z,99917.25
2023-03-30T13:42:45.869Z,99933.84
2023-03-30T13:46:05.548Z,99945.78
2023-03-30T13:49:29.347Z,99966.25
2023-03-30T13:52:38.306Z,99952.88
2023-03-30T13:55:45.200Z,99955.50
2023-03-30T13:58:55.746Z,99952.28
2023-03-30T14:02:01.048Z,99949.19
2023-03-30T14:05:16.248Z,99946.56
2023-03-30T14:08:20.214Z,99936.09
2023-03-30T14:11:26.352Z,99951.56
2023-03-30T14:14:35.872Z,99944.47
2023-03-30T14:17:38.586Z,99930.22
2023-03-30T14:20:48.200Z,99926.94
2023-03-30T14:23:54.421Z,99934.41
2023-03-30T14:27:03.424Z,99936.06
2023-03-30T14:30:19.171Z,99926.72
2023-03-30T14:33:22.184Z,99930.22
2023-03-30T14:36:25.385Z,99929.34
2023-03-30T14:39:31.706Z,99919.94
2023-03-30T14:42:34.730Z,99927.03
2023-03-30T14:45:37.880Z,99915.91
2023-03-30T14:48:42.915Z,99928.56
2023-03-30T14:51:48.532Z,99947.06
2023-03-30T14:55:06.044Z,99928.28
2023-03-30T14:58:15.721Z,99926.03
2023-03-30T15:01:23.995Z,99915.94
2023-03-30T15:04:31.821Z,99925.09
2023-03-30T15:07:35.016Z,99920.31
2023-03-30T15:10:46.032Z,99925.72
2023-03-30T15:13:52.482Z,99922.16
2023-03-30T15:16:57.535Z,99923.38
2023-03-30T15:20:01.902Z,99924.44
2023-03-30T15:23:04.821Z,99925.03
2023-03-30T15:26:09.549Z,99922.00
2023-03-30T15:29:13.034Z,99916.34
2023-03-30T15:32:17.519Z,99926.19
2023-03-30T15:35:24.549Z,99901.75
2023-03-30T15:38:34.063Z,99907.25
2023-03-30T15:41:48.550Z,99915.59
2023-03-30T15:45:02.435Z,99908.25
2023-03-30T15:48:05.606Z,99919.69
2023-03-30T15:51:12.326Z,99924.44
2023-03-30T15:54:17.106Z,99915.47
2023-03-30T15:57:24.929Z,99928.69
2023-03-30T16:00:30.706Z,99927.19
2023-03-30T16:03:40.456Z,99929.31
2023-03-30T16:06:45.202Z,99936.06
2023-03-30T16:09:49.851Z,99935.09
2023-03-30T16:12:55.681Z,99924.00
2023-03-30T16:15:58.434Z,99928.06
2023-03-30T16:19:01.263Z,99927.94
2023-03-30T16:22:03.879Z,99932.31
2023-03-30T16:25:07.630Z,99927.81
2023-03-30T16:28:17.501Z,99927.81
2023-03-30T16:31:22.755Z,99932.53
2023-03-30T16:34:25.911Z,99929.28
2023-03-30T16:37:29.344Z,99934.47
2023-03-30T16:40:34.497Z,99933.16
2023-03-30T16:43:38.453Z,99943.94
2023-03-30T16:46:42.642Z,99941.25
2023-03-30T16:49:45.271Z,99936.69
2023-03-30T16:52:47.891Z,99950.03
2023-03-30T16:55:50.893Z,99945.03
2023-03-30T16:58:54.848Z,99937.66
2023-03-30T17:01:57.685Z,99934.34
2023-03-30T17:05:00.639Z,99941.06
2023-03-30T17:08:07.949Z,99946.16
2023-03-30T17:11:13.345Z,99947.91
2023-03-30T17:14:18.090Z,99948.09
2023-03-30T17:17:21.480Z,99964.09
2023-03-30T17:20:30.028Z,99966.22
2023-03-30T17:23:33.646Z,99961.75
2023-03-30T17:26:36.370Z,99972.41
2023-03-30T17:29:40.609Z,99971.97
2023-03-30T17:32:43.200Z,99974.09
2023-03-30T17:35:48.871Z,99971.38
2023-03-30T17:38:52.073Z,99966.63
2023-03-30T17:41:54.728Z,99960.66
2023-03-30T17:44:58.709Z,99972.00
2023-03-30T17:48:01.746Z,99971.91
2023-03-30T17:51:04.667Z,99971.16
2023-03-30T17:54:08.227Z,99980.09
2023-03-30T17:57:10.839Z,99976.94
2023-03-30T18:00:21.685Z,99983.19
2023-03-30T18:03:25.624Z,99977.28
2023-03-30T18:06:28.297Z,99980.75
2023-03-30T18:09:30.924Z,99979.50
2023-03-30T18:12:33.568Z,99979.56
2023-03-30T18:15:37.704Z,99982.31
2023-03-30T18:18:40.545Z,99976.25
2023-03-30T18:21:43.203Z,99996.97
2023-03-30T18:24:45.784Z,99986.72
2023-03-30T18:27:49.675Z,99983.19
2023-03-30T18:30:57.204Z,99985.56
2023-03-30T18:33:59.829Z,99992.28
2023-03-30T18:37:02.466Z,99990.81
2023-03-30T18:40:13.466Z,99994.16
2023-03-30T18:43:16.458Z,99995.69
2023-03-30T18:46:20.492Z,99997.66
2023-03-30T18:49:23.728Z,100000.69
2023-03-30T18:52:26.313Z,100001.78
2023-03-30T18:55:29.421Z,100000.03
2023-03-30T18:58:41.358Z,100002.13
2023-03-30T19:01:45.790Z,100007.97
2023-03-30T19:04:48.565Z,100019.16
2023-03-30T19:07:51.624Z,100016.88
2023-03-30T19:10:56.750Z,100021.34
2023-03-30T19:14:00.345Z,100014.31
2023-03-30T19:17:04.346Z,100013.56
2023-03-30T19:20:08.282Z,100015.84
2023-03-30T19:23:12.755Z,100020.00
2023-03-30T19:26:15.351Z,100008.41
2023-03-30T19:29:17.941Z,100018.44
2023-03-30T19:32:21.921Z,100018.88
2023-03-30T19:35:25.207Z,100021.97
2023-03-30T19:38:27.828Z,100018.63
2023-03-30T19:41:30.478Z,100015.84
2023-03-30T19:44:33.052Z,100018.75
2023-03-30T19:47:37.283Z,100019.72
2023-03-30T19:50:40.644Z,100028.22
2023-03-30T19:53:43.305Z,100015.78
2023-03-30T19:56:46.007Z,100015.16
2023-03-30T19:59:49.230Z,100015.41
2023-03-30T20:02:55.200Z,100022.13
2023-03-30T20:05:57.847Z,100013.78
2023-03-30T20:09:00.645Z,100017.75
2023-03-30T20:12:04.305Z,100015.94
2023-03-30T20:15:09.397Z,100016.38
2023-03-30T20:18:14.135Z,100011.59
2023-03-30T20:21:17.078Z,100010.78
2023-03-30T20:24:19.656Z,100015.72
2023-03-30T20:27:22.310Z,99999.63
2023-03-30T20:30:24.913Z,99998.66
2023-03-30T20:33:30.570Z,100005.50
2023-03-30T20:36:33.421Z,100014.03
2023-03-30T20:39:37.135Z,100014.50
2023-03-30T20:42:40.529Z,100009.59
2023-03-30T20:45:48.357Z,100007.91
2023-03-30T20:48:54.815Z,100013.91
2023-03-30T20:52:00.718Z,100011.00
2023-03-30T20:55:03.322Z,100006.69
2023-03-30T20:58:05.955Z,100001.84
2023-03-30T21:01:16.904Z,99998.06
2023-03-30T21:04:21.037Z,99993.13
2023-03-30T21:07:24.645Z,99999.94
2023-03-30T21:10:27.268Z,100000.84
2023-03-30T21:13:30.169Z,100002.28
2023-03-30T21:16:33.273Z,100002.78
2023-03-30T21:19:37.545Z,99994.69
2023-03-30T21:22:40.114Z,99993.72
2023-03-30T21:25:43.098Z,99992.00
2023-03-30T21:28:46.021Z,99987.63
2023-03-30T21:31:48.630Z,99985.69
2023-03-30T21:34:52.535Z,99988.94
2023-03-30T21:37:55.510Z,99997.81
2023-03-30T21:40:59.738Z,99980.41
2023-03-30T21:44:03.292Z,99987.16
2023-03-30T21:47:05.929Z,99982.69
2023-03-30T21:50:11.057Z,99978.59
2023-03-30T21:53:13.647Z,99979.09
2023-03-30T21:56:16.540Z,99986.13
2023-03-30T21:59:19.771Z,99986.13
2023-03-30T22:02:22.795Z,99988.88
2023-03-30T22:05:27.031Z,99984.19
2023-03-30T22:08:30.364Z,99989.03
2023-03-30T22:11:33.003Z,99971.38
2023-03-30T22:14:35.832Z,99994.25
2023-03-30T22:17:42.306Z,99975.50
2023-03-30T22:20:46.273Z,99992.34
2023-03-30T22:23:48.908Z,99989.16
2023-03-30T22:26:52.531Z,99979.31
2023-03-30T22:29:55.345Z,99984.38
2023-03-30T22:32:58.087Z,99980.97
2023-03-30T22:36:03.021Z,99980.72
2023-03-30T22:39:06.373Z,99972.16
2023-03-30T22:42:09.338Z,99960.94
2023-03-30T22:45:12.259Z,99962.75
2023-03-30T22:48:14.832Z,99969.34
2023-03-30T22:51:23.393Z,99965.16
2023-03-30T22:54:26.128Z,99966.75
2023-03-30T22:57:28.787Z,99961.00
2023-03-30T23:00:31.725Z,99961.69
2023-03-30T23:03:34.453Z,99951.53
2023-03-30T23:06:39.088Z,99954.34
2023-03-30T23:09:47.135Z,99951.94
2023-03-30T23:12:49.727Z,99947.84
2023-03-30T23:15:52.323Z,99938.50
2023-03-30T23:18:54.903Z,99943.22
2023-03-30T23:21:58.835Z,99947.50
2023-03-30T23:25:01.413Z,99938.84
2023-03-30T23:28:05.287Z,99943.50
2023-03-30T23:31:09.218Z,99936.56
2023-03-30T23:34:13.426Z,99932.09
2023-03-30T23:37:17.921Z,99941.34
2023-03-30T23:40:20.554Z,99930.13
2023-03-30T23:43:23.159Z,99929.28
2023-03-30T23:46:25.903Z,99938.94
2023-03-30T23:49:28.663Z,99929.19
2023-03-30T23:52:32.650Z,99939.13
2023-03-30T23:55:35.237Z,99936.41
2023-03-30T23:58:37.804Z,99929.00
